createdAt,value
2018-07-14T00:02:59.953Z,0
2018-07-14T00:13:00.026Z,0
2018-07-14T00:22:59.987Z,0
2018-07-14T00:33:00.048Z,0
2018-07-14T00:43:01.007Z,0
2018-07-14T00:53:00.025Z,0
2018-07-14T01:03:00.057Z,0
2018-07-14T01:13:00.001Z,0
2018-07-14T01:22:59.919Z,0
2018-07-14T01:33:00.026Z,0
2018-07-14T01:43:00.057Z,0
2018-07-14T01:52:59.970Z,0
2018-07-14T02:03:00.013Z,0
2018-07-14T02:13:00.006Z,0
2018-07-14T02:23:00.050Z,0
2018-07-14T02:33:00.036Z,0
2018-07-14T02:42:59.931Z,4
2018-07-14T02:53:00.008Z,8
2018-07-14T03:02:59.941Z,28
2018-07-14T03:13:00.310Z,92
2018-07-14T03:22:59.990Z,192
2018-07-14T03:33:00.050Z,416
2018-07-14T03:43:00.026Z,588
2018-07-14T03:52:59.972Z,624
2018-07-14T04:02:59.936Z,1284
2018-07-14T04:13:00.024Z,2332
2018-07-14T04:22:59.939Z,3768
2018-07-14T04:32:59.996Z,4000
2018-07-14T04:43:00.022Z,4616
2018-07-14T04:52:59.947Z,5776
2018-07-14T05:02:59.996Z,7304
2018-07-14T05:13:00.032Z,8092
2018-07-14T05:22:59.946Z,11740
2018-07-14T05:32:59.983Z,12556
2018-07-14T05:42:59.971Z,12856
2018-07-14T05:53:00.027Z,13516
2018-07-14T06:02:59.996Z,15856
2018-07-14T06:13:00.022Z,38528
2018-07-14T06:22:59.910Z,36800
2018-07-14T06:32:59.964Z,26272
2018-07-14T06:43:00.022Z,42048
2018-07-14T06:52:59.960Z,42656
2018-07-14T07:03:00.053Z,44608
2018-07-14T07:12:59.975Z,50688
2018-07-14T07:22:59.945Z,47808
2018-07-14T07:33:00.101Z,54048
2018-07-14T07:43:02.321Z,50016
2018-07-14T07:53:00.426Z,61952
2018-07-14T08:03:00.008Z,61184
2018-07-14T08:12:59.973Z,75840
2018-07-14T08:23:00.079Z,76960
2018-07-14T08:32:59.919Z,76992
2018-07-14T08:43:00.036Z,49312
2018-07-14T08:53:00.045Z,67936
2018-07-14T09:02:59.961Z,63104
2018-07-14T09:13:00.049Z,14252
2018-07-14T09:22:59.988Z,12712
2018-07-14T09:33:00.074Z,12668
2018-07-14T09:43:00.053Z,13548
2018-07-14T09:53:01.100Z,16352
2018-07-14T10:03:08.477Z,17340
2018-07-14T10:13:09.221Z,21216
2018-07-14T10:23:01.065Z,12896
2018-07-14T10:33:00.026Z,14208
2018-07-14T10:42:59.990Z,17400
2018-07-14T10:53:00.054Z,8428
2018-07-14T11:03:00.067Z,8728
2018-07-14T11:12:59.958Z,10140
2018-07-14T11:23:00.035Z,9164
2018-07-14T11:33:00.016Z,7628
2018-07-14T11:43:00.047Z,7588
2018-07-14T11:53:00.800Z,9264
2018-07-14T12:03:00.052Z,10164
2018-07-14T12:13:00.096Z,6912
2018-07-14T12:23:00.231Z,6076
2018-07-14T12:33:00.125Z,7340
2018-07-14T12:43:00.102Z,7576
2018-07-14T12:53:00.120Z,5092
2018-07-14T13:03:00.180Z,4932
2018-07-14T13:13:00.044Z,7728
2018-07-14T13:23:01.419Z,7036
2018-07-14T13:33:00.299Z,4916
2018-07-14T13:43:00.132Z,3764
2018-07-14T13:53:00.125Z,4524
2018-07-14T14:03:00.141Z,4292
2018-07-14T14:13:00.174Z,5636
2018-07-14T14:23:00.084Z,4972
2018-07-14T14:33:00.238Z,4368
2018-07-14T14:43:00.125Z,5656
2018-07-14T14:53:00.069Z,7436
2018-07-14T15:03:35.924Z,5696
2018-07-14T15:13:00.088Z,4568
2018-07-14T15:23:00.172Z,4332
2018-07-14T15:33:00.341Z,3684
2018-07-14T15:43:00.075Z,3360
2018-07-14T15:53:00.153Z,3296
2018-07-14T16:03:00.109Z,3128
2018-07-14T16:13:00.185Z,3128
2018-07-14T16:23:00.165Z,3032
2018-07-14T16:33:00.171Z,3012
2018-07-14T16:43:45.474Z,2948
2018-07-14T16:53:24.871Z,2884
2018-07-14T17:04:43.065Z,2836
2018-07-14T17:13:00.113Z,2812
2018-07-14T17:23:01.262Z,2704
2018-07-14T17:33:00.291Z,2648
2018-07-14T17:43:00.289Z,2548
2018-07-14T17:53:04.083Z,2432
2018-07-14T18:03:00.050Z,2320
2018-07-14T18:13:00.194Z,2172
2018-07-14T18:23:00.207Z,2012
2018-07-14T18:33:00.183Z,1824
2018-07-14T18:43:04.344Z,1604
2018-07-14T18:53:01.199Z,1336
2018-07-14T19:03:00.330Z,1100
2018-07-14T19:13:00.234Z,860
2018-07-14T19:23:01.365Z,620
2018-07-14T19:33:00.094Z,396
2018-07-14T19:43:03.190Z,220
2018-07-14T19:53:00.175Z,100
2018-07-14T20:03:00.177Z,40
2018-07-14T20:13:01.364Z,12
2018-07-14T20:23:00.116Z,4
2018-07-14T20:33:00.099Z,0
2018-07-14T20:43:00.097Z,0
2018-07-14T20:53:00.145Z,0
2018-07-14T21:03:00.212Z,0
2018-07-14T21:13:13.703Z,0
2018-07-14T21:23:00.405Z,0
2018-07-14T21:33:00.400Z,0
2018-07-14T21:43:00.184Z,0
2018-07-14T21:53:00.956Z,0
2018-07-14T22:03:00.149Z,0
2018-07-14T22:13:00.401Z,0
2018-07-14T22:23:00.830Z,4
2018-07-14T22:33:00.303Z,0
2018-07-14T22:43:00.735Z,0
2018-07-14T22:53:00.414Z,0
2018-07-14T23:03:00.622Z,0
2018-07-14T23:13:00.128Z,0
2018-07-14T23:23:00.300Z,0
2018-07-14T23:33:00.199Z,0
2018-07-14T23:43:00.630Z,0
2018-07-14T23:53:00.197Z,0
